createdAt,value
2023-01-26T00:01:53.656Z,0.30
2023-01-26T00:04:21.897Z,0.40
2023-01-26T00:06:50.658Z,0.40
2023-01-26T00:09:18.667Z,0.30
2023-01-26T00:11:46.760Z,0.30
2023-01-26T00:14:14.828Z,0.30
2023-01-26T00:16:42.921Z,0.30
2023-01-26T00:19:12.325Z,0.30
2023-01-26T00:21:40.388Z,0.30
2023-01-26T00:24:08.895Z,0.30
2023-01-26T00:26:36.953Z,0.30
2023-01-26T00:29:04.992Z,0.40
2023-01-26T00:31:33.088Z,0.40
2023-01-26T00:34:01.170Z,0.40
2023-01-26T00:36:30.459Z,0.40
2023-01-26T00:38:58.589Z,0.30
2023-01-26T00:41:44.370Z,0.40
2023-01-26T00:44:12.449Z,0.30
2023-01-26T00:46:40.673Z,0.40
2023-01-26T00:49:08.819Z,0.40
2023-01-26T00:51:38.256Z,0.40
2023-01-26T00:54:06.360Z,0.40
2023-01-26T00:56:34.429Z,0.50
2023-01-26T00:59:02.533Z,0.40
2023-01-26T01:01:30.656Z,0.40
2023-01-26T01:03:59.032Z,0.40
2023-01-26T01:06:27.172Z,0.50
2023-01-26T01:08:56.568Z,0.40
2023-01-26T01:11:24.992Z,0.40
2023-01-26T01:13:53.043Z,0.40
2023-01-26T01:16:21.242Z,0.50
2023-01-26T01:18:49.411Z,0.40
2023-01-26T01:21:18.660Z,0.40
2023-01-26T01:23:47.163Z,0.50
2023-01-26T01:26:17.494Z,0.40
2023-01-26T01:28:45.746Z,0.50
2023-01-26T01:31:15.418Z,0.50
2023-01-26T01:33:44.247Z,0.50
2023-01-26T01:36:14.210Z,0.50
2023-01-26T01:38:42.940Z,0.50
2023-01-26T01:41:11.993Z,0.50
2023-01-26T01:43:42.194Z,0.50
2023-01-26T01:46:18.082Z,0.50
2023-01-26T01:48:54.153Z,0.40
2023-01-26T01:51:28.848Z,0.50
2023-01-26T01:53:59.554Z,0.50
2023-01-26T01:56:30.621Z,0.50
2023-01-26T01:59:01.919Z,0.50
2023-01-26T02:01:30.543Z,0.50
2023-01-26T02:04:02.079Z,0.50
2023-01-26T02:06:35.279Z,0.50
2023-01-26T02:09:05.539Z,0.50
2023-01-26T02:11:38.303Z,0.50
2023-01-26T02:14:10.688Z,0.50
2023-01-26T02:16:39.977Z,0.60
2023-01-26T02:19:15.697Z,0.50
2023-01-26T02:21:46.046Z,0.50
2023-01-26T02:24:22.947Z,0.50
2023-01-26T02:26:54.631Z,0.50
2023-01-26T02:29:23.795Z,0.50
2023-01-26T02:31:53.545Z,0.60
2023-01-26T02:34:24.143Z,0.60
2023-01-26T02:36:59.463Z,0.60
2023-01-26T02:39:42.199Z,0.60
2023-01-26T02:42:29.691Z,0.60
2023-01-26T02:44:58.102Z,0.60
2023-01-26T02:47:26.227Z,0.60
2023-01-26T02:49:53.336Z,0.60
2023-01-26T02:52:23.154Z,0.60
2023-01-26T02:55:08.766Z,0.60
2023-01-26T02:57:38.368Z,0.60
2023-01-26T03:00:10.911Z,0.60
2023-01-26T03:02:39.677Z,0.60
2023-01-26T03:05:08.393Z,0.60
2023-01-26T03:07:36.536Z,0.60
2023-01-26T03:10:05.424Z,0.60
2023-01-26T03:12:33.664Z,0.60
2023-01-26T03:15:20.441Z,0.70
2023-01-26T03:17:48.774Z,0.70
2023-01-26T03:20:34.853Z,0.70
2023-01-26T03:23:20.339Z,0.70
2023-01-26T03:26:05.772Z,0.70
2023-01-26T03:28:33.785Z,0.70
2023-01-26T03:31:08.229Z,0.80
2023-01-26T03:33:36.285Z,0.80
2023-01-26T03:36:04.346Z,0.80
2023-01-26T03:38:32.450Z,0.80
2023-01-26T03:41:17.820Z,0.80
2023-01-26T03:44:03.225Z,0.80
2023-01-26T03:46:50.106Z,0.80
2023-01-26T03:49:35.875Z,0.80
2023-01-26T03:52:21.360Z,0.80
2023-01-26T03:55:06.844Z,0.80
2023-01-26T03:57:34.942Z,0.80
2023-01-26T04:00:03.165Z,0.80
2023-01-26T04:02:50.562Z,0.80
2023-01-26T04:05:35.920Z,0.80
2023-01-26T04:08:27.074Z,0.80
2023-01-26T04:10:55.941Z,0.80
2023-01-26T04:13:43.034Z,0.80
2023-01-26T04:16:29.365Z,0.80
2023-01-26T04:19:16.403Z,0.90
2023-01-26T04:21:44.428Z,0.90
2023-01-26T04:24:16.750Z,0.90
2023-01-26T04:26:45.492Z,1.00
2023-01-26T04:29:14.897Z,1.00
2023-01-26T04:31:44.198Z,1.00
2023-01-26T04:34:14.961Z,1.00
2023-01-26T04:36:43.559Z,1.00
2023-01-26T04:39:12.107Z,1.00
2023-01-26T04:41:42.266Z,1.00
2023-01-26T04:44:10.594Z,1.00
2023-01-26T04:46:38.818Z,1.00
2023-01-26T04:49:06.854Z,1.00
2023-01-26T04:51:36.750Z,1.00
2023-01-26T04:54:05.044Z,0.90
2023-01-26T04:56:34.634Z,1.00
2023-01-26T04:59:05.150Z,1.00
2023-01-26T05:01:33.649Z,1.00
2023-01-26T05:04:02.643Z,1.00
2023-01-26T05:06:30.722Z,1.00
2023-01-26T05:09:00.259Z,1.00
2023-01-26T05:11:28.373Z,1.00
2023-01-26T05:13:56.542Z,1.10
2023-01-26T05:16:25.212Z,1.10
2023-01-26T05:18:54.261Z,1.10
2023-01-26T05:21:24.602Z,1.10
2023-01-26T05:23:52.840Z,1.10
2023-01-26T05:26:22.324Z,1.10
2023-01-26T05:28:50.413Z,1.10
2023-01-26T05:31:18.528Z,1.10
2023-01-26T05:33:46.556Z,1.10
2023-01-26T05:36:14.448Z,1.10
2023-01-26T05:38:43.549Z,1.10
2023-01-26T05:41:11.578Z,1.10
2023-01-26T05:43:41.077Z,1.10
2023-01-26T05:46:09.225Z,1.10
2023-01-26T05:48:37.365Z,1.10
2023-01-26T05:51:05.604Z,1.10
2023-01-26T05:53:33.681Z,1.10
2023-01-26T05:56:01.813Z,1.10
2023-01-26T05:58:29.840Z,1.10
2023-01-26T06:00:59.261Z,1.10
2023-01-26T06:03:27.312Z,1.10
2023-01-26T06:05:55.791Z,1.10
2023-01-26T06:08:23.845Z,1.10
2023-01-26T06:10:51.949Z,1.10
2023-01-26T06:13:20.040Z,1.10
2023-01-26T06:15:48.087Z,1.10
2023-01-26T06:18:17.521Z,1.20
2023-01-26T06:20:45.607Z,1.10
2023-01-26T06:23:13.797Z,1.20
2023-01-26T06:25:42.055Z,1.20
2023-01-26T06:28:10.184Z,1.20
2023-01-26T06:30:38.421Z,1.20
2023-01-26T06:33:07.572Z,1.20
2023-01-26T06:35:37.163Z,1.20
2023-01-26T06:38:05.397Z,1.20
2023-01-26T06:40:33.449Z,1.20
2023-01-26T06:43:01.433Z,1.20
2023-01-26T06:45:29.488Z,1.20
2023-01-26T06:47:57.595Z,1.30
2023-01-26T06:50:32.481Z,1.30
2023-01-26T06:53:05.616Z,1.30
2023-01-26T06:55:37.237Z,1.30
2023-01-26T06:58:05.319Z,1.30
2023-01-26T07:00:33.433Z,1.30
2023-01-26T07:03:01.559Z,1.30
2023-01-26T07:05:29.690Z,1.30
2023-01-26T07:08:00.312Z,1.30
2023-01-26T07:10:29.749Z,1.30
2023-01-26T07:12:57.798Z,1.30
2023-01-26T07:15:25.896Z,1.30
2023-01-26T07:17:54.644Z,1.30
2023-01-26T07:20:22.902Z,1.30
2023-01-26T07:22:51.183Z,1.30
2023-01-26T07:25:19.575Z,1.30
2023-01-26T07:27:49.099Z,1.40
2023-01-26T07:30:17.984Z,1.30
2023-01-26T07:32:46.074Z,1.30
2023-01-26T07:35:14.132Z,1.30
2023-01-26T07:37:42.294Z,1.30
2023-01-26T07:40:12.025Z,1.30
2023-01-26T07:42:40.301Z,1.30
2023-01-26T07:45:10.612Z,1.40
2023-01-26T07:47:38.779Z,1.40
2023-01-26T07:50:07.864Z,1.40
2023-01-26T07:52:35.952Z,1.40
2023-01-26T07:55:04.141Z,1.40
2023-01-26T07:57:33.919Z,1.40
2023-01-26T08:00:02.004Z,1.40
2023-01-26T08:02:31.478Z,1.40
2023-01-26T08:05:00.163Z,1.40
2023-01-26T08:07:28.269Z,1.50
2023-01-26T08:09:56.327Z,1.50
2023-01-26T08:12:24.446Z,1.50
2023-01-26T08:14:52.651Z,1.50
2023-01-26T08:17:20.990Z,1.50
2023-01-26T08:19:50.445Z,1.50
2023-01-26T08:22:18.540Z,1.50
2023-01-26T08:24:46.602Z,1.50
2023-01-26T08:27:16.129Z,1.50
2023-01-26T08:29:44.208Z,1.50
2023-01-26T08:32:12.350Z,1.60
2023-01-26T08:34:40.444Z,1.60
2023-01-26T08:37:09.869Z,1.70
2023-01-26T08:39:37.943Z,1.60
2023-01-26T08:42:06.067Z,1.70
2023-01-26T08:44:34.192Z,1.70
2023-01-26T08:47:02.229Z,1.70
2023-01-26T08:49:30.315Z,1.80
2023-01-26T08:51:58.407Z,1.80
2023-01-26T08:54:28.721Z,1.80
2023-01-26T08:56:56.778Z,1.90
2023-01-26T08:59:24.901Z,1.90
2023-01-26T09:01:52.942Z,1.90
2023-01-26T09:04:21.097Z,2.00
2023-01-26T09:06:49.165Z,2.00
2023-01-26T09:09:17.241Z,2.10
2023-01-26T09:11:46.683Z,2.20
2023-01-26T09:14:14.789Z,2.20
2023-01-26T09:16:42.951Z,2.20
2023-01-26T09:19:10.932Z,2.30
2023-01-26T09:21:39.041Z,2.30
2023-01-26T09:24:07.784Z,2.40
2023-01-26T09:26:36.119Z,2.50
2023-01-26T09:29:05.530Z,2.50
2023-01-26T09:31:33.783Z,2.60
2023-01-26T09:34:01.959Z,2.70
2023-01-26T09:36:30.078Z,2.80
2023-01-26T09:38:58.122Z,2.90
2023-01-26T09:41:43.711Z,3.00
2023-01-26T09:44:17.581Z,3.10
2023-01-26T09:47:00.528Z,3.20
2023-01-26T09:49:43.991Z,3.30
2023-01-26T09:52:19.125Z,3.40
2023-01-26T09:54:50.863Z,3.50
2023-01-26T09:57:21.939Z,3.50
2023-01-26T09:59:57.997Z,3.60
2023-01-26T10:02:39.043Z,3.70
2023-01-26T10:05:16.262Z,3.80
2023-01-26T10:07:45.644Z,3.80
2023-01-26T10:10:20.113Z,3.90
2023-01-26T10:12:50.677Z,3.90
2023-01-26T10:15:30.751Z,4.00
2023-01-26T10:18:01.637Z,4.00
2023-01-26T10:20:32.652Z,4.10
2023-01-26T10:23:05.375Z,4.20
2023-01-26T10:25:36.305Z,4.30
2023-01-26T10:28:14.642Z,4.40
2023-01-26T10:30:47.144Z,4.40
2023-01-26T10:33:18.318Z,4.50
2023-01-26T10:35:46.521Z,4.60
2023-01-26T10:38:46.222Z,4.80
2023-01-26T10:41:28.742Z,5.00
2023-01-26T10:43:59.773Z,5.10
2023-01-26T10:46:32.067Z,5.10
2023-01-26T10:49:02.688Z,5.30
2023-01-26T10:51:33.296Z,5.50
2023-01-26T10:54:23.099Z,5.80
2023-01-26T10:56:54.480Z,6.00
2023-01-26T10:59:33.116Z,6.20
2023-01-26T11:02:04.486Z,6.50
2023-01-26T11:04:32.566Z,6.70
2023-01-26T11:07:25.094Z,6.80
2023-01-26T11:09:53.637Z,6.90
2023-01-26T11:12:23.272Z,7.10
2023-01-26T11:15:04.002Z,7.30
2023-01-26T11:17:39.334Z,7.40
2023-01-26T11:20:26.573Z,7.60
2023-01-26T11:23:05.705Z,7.70
2023-01-26T11:25:42.313Z,7.70
2023-01-26T11:28:25.667Z,7.70
2023-01-26T11:31:11.245Z,7.70
2023-01-26T11:33:47.772Z,7.70
2023-01-26T11:36:26.992Z,7.80
2023-01-26T11:39:04.443Z,7.80
2023-01-26T11:41:47.328Z,7.70
2023-01-26T11:44:31.058Z,7.90
2023-01-26T11:47:17.831Z,7.90
2023-01-26T11:50:18.486Z,8.00
2023-01-26T11:52:59.261Z,8.00
2023-01-26T11:55:38.928Z,7.90
2023-01-26T11:58:24.153Z,8.00
2023-01-26T12:00:56.033Z,8.10
2023-01-26T12:03:28.259Z,8.20
2023-01-26T12:06:03.586Z,8.30
2023-01-26T12:08:39.466Z,8.30
2023-01-26T12:11:24.080Z,8.30
2023-01-26T12:14:04.827Z,8.40
2023-01-26T12:16:41.925Z,8.60
2023-01-26T12:19:32.372Z,8.60
2023-01-26T12:22:11.825Z,8.50
2023-01-26T12:25:16.253Z,8.50
2023-01-26T12:27:38.482Z,8.70
2023-01-26T12:30:23.494Z,8.80
2023-01-26T12:32:52.195Z,9.00
2023-01-26T12:35:29.842Z,9.10
2023-01-26T12:38:17.366Z,9.40
2023-01-26T12:40:54.143Z,9.50
2023-01-26T12:43:37.839Z,9.70
2023-01-26T12:46:07.446Z,9.60
2023-01-26T12:48:42.602Z,9.60
2023-01-26T12:51:16.241Z,9.60
2023-01-26T12:53:55.777Z,9.70
2023-01-26T12:56:29.434Z,9.70
2023-01-26T12:58:59.320Z,9.60
2023-01-26T13:01:37.442Z,9.60
2023-01-26T13:04:09.844Z,9.70
2023-01-26T13:06:38.052Z,9.80
2023-01-26T13:09:21.281Z,9.80
2023-01-26T13:11:51.753Z,10.00
2023-01-26T13:14:37.689Z,10.00
2023-01-26T13:17:48.303Z,9.80
2023-01-26T13:20:41.899Z,9.90
2023-01-26T13:23:38.378Z,9.40
2023-01-26T13:26:51.725Z,9.60
2023-01-26T13:29:36.511Z,9.70
2023-01-26T13:32:38.700Z,9.90
2023-01-26T13:35:11.788Z,10.10
2023-01-26T13:37:47.499Z,9.80
2023-01-26T13:40:20.026Z,9.80
2023-01-26T13:42:56.109Z,9.70
2023-01-26T13:45:33.805Z,9.60
2023-01-26T13:48:05.401Z,9.60
2023-01-26T13:50:37.671Z,9.60
2023-01-26T13:53:32.123Z,9.50
2023-01-26T13:56:01.844Z,9.50
2023-01-26T13:58:29.935Z,9.50
2023-01-26T14:01:04.127Z,9.30
2023-01-26T14:03:32.339Z,9.30
2023-01-26T14:06:05.174Z,9.30
2023-01-26T14:08:34.759Z,9.20
2023-01-26T14:11:05.873Z,9.10
2023-01-26T14:13:37.196Z,9.00
2023-01-26T14:16:08.608Z,8.90
2023-01-26T14:18:36.738Z,8.90
2023-01-26T14:21:06.558Z,8.90
2023-01-26T14:23:36.532Z,8.80
2023-01-26T14:26:06.639Z,8.80
2023-01-26T14:28:37.962Z,8.70
2023-01-26T14:31:16.612Z,8.70
2023-01-26T14:33:45.335Z,8.70
2023-01-26T14:36:22.451Z,8.70
2023-01-26T14:38:52.643Z,8.70
2023-01-26T14:41:25.041Z,8.60
2023-01-26T14:43:57.881Z,8.60
2023-01-26T14:46:32.005Z,8.50
2023-01-26T14:49:07.362Z,8.50
2023-01-26T14:51:36.795Z,8.50
2023-01-26T14:54:11.792Z,8.40
2023-01-26T14:56:41.910Z,8.30
2023-01-26T14:59:20.097Z,8.30
2023-01-26T15:01:50.051Z,8.30
2023-01-26T15:04:25.915Z,8.20
2023-01-26T15:06:53.979Z,8.20
2023-01-26T15:09:24.166Z,8.20
2023-01-26T15:12:15.138Z,8.20
2023-01-26T15:14:51.217Z,8.20
2023-01-26T15:17:31.699Z,8.20
2023-01-26T15:19:59.869Z,8.20
2023-01-26T15:22:28.336Z,8.20
2023-01-26T15:25:17.995Z,8.10
2023-01-26T15:27:51.935Z,8.10
2023-01-26T15:30:24.275Z,8.00
2023-01-26T15:32:54.021Z,8.00
2023-01-26T15:35:25.228Z,8.00
2023-01-26T15:38:02.565Z,8.00
2023-01-26T15:40:31.820Z,7.90
2023-01-26T15:43:13.595Z,7.90
2023-01-26T15:45:43.519Z,7.90
2023-01-26T15:48:12.939Z,7.90
2023-01-26T15:50:41.048Z,7.90
2023-01-26T15:53:14.323Z,7.80
2023-01-26T15:55:44.103Z,7.80
2023-01-26T15:58:12.098Z,7.80
2023-01-26T16:00:40.365Z,7.80
2023-01-26T16:03:16.086Z,7.70
2023-01-26T16:05:44.415Z,7.70
2023-01-26T16:08:12.499Z,7.70
2023-01-26T16:10:40.680Z,7.70
2023-01-26T16:13:10.824Z,7.70
2023-01-26T16:15:42.620Z,7.60
2023-01-26T16:18:11.006Z,7.60
2023-01-26T16:20:42.164Z,7.60
2023-01-26T16:23:18.534Z,7.60
2023-01-26T16:25:47.161Z,7.60
2023-01-26T16:28:15.570Z,7.60
2023-01-26T16:30:45.039Z,7.60
2023-01-26T16:33:14.675Z,7.50
2023-01-26T16:35:44.573Z,7.50
2023-01-26T16:38:13.205Z,7.50
2023-01-26T16:40:42.320Z,7.50
2023-01-26T16:43:16.771Z,7.40
2023-01-26T16:45:44.839Z,7.40
2023-01-26T16:48:14.825Z,7.40
2023-01-26T16:50:45.695Z,7.40
2023-01-26T16:53:20.100Z,7.40
2023-01-26T16:55:48.169Z,7.40
2023-01-26T16:58:16.207Z,7.40
2023-01-26T17:00:44.733Z,7.30
2023-01-26T17:03:13.911Z,7.20
2023-01-26T17:05:43.713Z,7.20
2023-01-26T17:08:11.831Z,7.20
2023-01-26T17:10:55.532Z,7.20
2023-01-26T17:13:28.391Z,7.20
2023-01-26T17:15:57.818Z,7.20
2023-01-26T17:18:26.000Z,7.10
2023-01-26T17:20:55.432Z,7.20
2023-01-26T17:23:23.491Z,7.10
2023-01-26T17:25:58.438Z,7.10
2023-01-26T17:28:27.716Z,7.10
2023-01-26T17:30:55.811Z,7.10
2023-01-26T17:33:23.845Z,7.10
2023-01-26T17:36:01.781Z,7.10
2023-01-26T17:38:29.810Z,7.10
2023-01-26T17:40:58.645Z,7.00
2023-01-26T17:43:27.053Z,7.10
2023-01-26T17:46:02.968Z,7.00
2023-01-26T17:48:31.226Z,7.00
2023-01-26T17:50:59.289Z,7.00
2023-01-26T17:53:28.944Z,7.00
2023-01-26T17:55:56.990Z,7.00
2023-01-26T17:58:25.170Z,7.00
2023-01-26T18:00:53.408Z,7.00
2023-01-26T18:03:26.260Z,7.00
2023-01-26T18:05:55.216Z,7.00
2023-01-26T18:08:24.037Z,7.00
2023-01-26T18:10:58.726Z,7.00
2023-01-26T18:13:27.220Z,7.00
2023-01-26T18:15:55.373Z,7.00
2023-01-26T18:18:23.885Z,7.00
2023-01-26T18:20:52.770Z,6.90
2023-01-26T18:23:21.620Z,7.00
2023-01-26T18:25:49.887Z,7.00
2023-01-26T18:28:19.454Z,7.00
2023-01-26T18:30:48.476Z,7.00
2023-01-26T18:33:16.645Z,7.00
2023-01-26T18:35:45.141Z,7.00
2023-01-26T18:38:13.309Z,7.00
2023-01-26T18:40:41.495Z,6.90
2023-01-26T18:43:10.766Z,6.90
2023-01-26T18:45:43.467Z,6.90
2023-01-26T18:48:11.628Z,6.90
2023-01-26T18:50:40.611Z,6.90
2023-01-26T18:53:08.742Z,6.90
2023-01-26T18:55:38.073Z,6.90
2023-01-26T18:58:06.237Z,6.80
2023-01-26T19:00:35.040Z,6.80
2023-01-26T19:03:04.800Z,6.80
2023-01-26T19:05:32.901Z,6.80
2023-01-26T19:08:09.971Z,6.80
2023-01-26T19:10:39.036Z,6.80
2023-01-26T19:13:07.912Z,6.80
2023-01-26T19:15:36.431Z,6.80
2023-01-26T19:18:06.031Z,6.80
2023-01-26T19:20:34.287Z,6.80
2023-01-26T19:23:03.918Z,6.80
2023-01-26T19:25:35.926Z,6.80
2023-01-26T19:28:04.132Z,6.70
2023-01-26T19:30:33.255Z,6.70
2023-01-26T19:33:19.124Z,6.70
2023-01-26T19:35:48.387Z,6.80
2023-01-26T19:38:16.839Z,6.80
2023-01-26T19:40:45.791Z,6.70
2023-01-26T19:43:13.923Z,6.70
2023-01-26T19:45:42.353Z,6.70
2023-01-26T19:48:10.571Z,6.70
2023-01-26T19:50:38.694Z,6.70
2023-01-26T19:53:08.240Z,6.70
2023-01-26T19:55:36.424Z,6.70
2023-01-26T19:58:04.508Z,6.70
2023-01-26T20:00:32.778Z,6.70
2023-01-26T20:03:01.274Z,6.70
2023-01-26T20:05:29.375Z,6.70
2023-01-26T20:07:58.088Z,6.70
2023-01-26T20:10:28.039Z,6.70
2023-01-26T20:12:57.381Z,6.70
2023-01-26T20:15:25.557Z,6.70
2023-01-26T20:17:53.677Z,6.70
2023-01-26T20:20:21.752Z,6.70
2023-01-26T20:22:49.929Z,6.60
2023-01-26T20:25:18.076Z,6.60
2023-01-26T20:27:47.646Z,6.60
2023-01-26T20:30:16.845Z,6.60
2023-01-26T20:32:45.216Z,6.60
2023-01-26T20:35:14.716Z,6.50
2023-01-26T20:37:43.042Z,6.50
2023-01-26T20:40:12.808Z,6.50
2023-01-26T20:42:41.049Z,6.50
2023-01-26T20:45:12.182Z,6.40
2023-01-26T20:47:40.453Z,6.40
2023-01-26T20:50:10.363Z,6.30
2023-01-26T20:52:39.337Z,6.30
2023-01-26T20:55:08.270Z,6.30
2023-01-26T20:57:36.640Z,6.30
2023-01-26T21:00:05.554Z,6.20
2023-01-26T21:02:35.191Z,6.30
2023-01-26T21:05:03.555Z,6.20
2023-01-26T21:07:31.594Z,6.30
2023-01-26T21:09:59.663Z,6.30
2023-01-26T21:12:28.114Z,6.30
2023-01-26T21:14:56.137Z,6.20
2023-01-26T21:17:24.474Z,6.20
2023-01-26T21:19:53.955Z,6.10
2023-01-26T21:22:22.005Z,6.10
2023-01-26T21:24:50.071Z,6.00
2023-01-26T21:27:18.340Z,5.90
2023-01-26T21:29:46.424Z,5.90
2023-01-26T21:32:15.688Z,5.80
2023-01-26T21:34:43.996Z,5.80
2023-01-26T21:37:13.422Z,5.80
2023-01-26T21:39:41.485Z,5.70
2023-01-26T21:42:09.550Z,5.70
2023-01-26T21:44:57.720Z,5.60
2023-01-26T21:47:25.736Z,5.60
2023-01-26T21:49:53.865Z,5.50
2023-01-26T21:52:40.876Z,5.40
2023-01-26T21:55:09.555Z,5.40
2023-01-26T21:57:55.195Z,5.30
2023-01-26T22:00:23.515Z,5.20
2023-01-26T22:02:51.547Z,5.20
2023-01-26T22:05:19.647Z,5.10
2023-01-26T22:07:49.093Z,5.10
2023-01-26T22:10:18.014Z,5.00
2023-01-26T22:12:46.134Z,5.00
2023-01-26T22:15:14.392Z,5.00
2023-01-26T22:17:42.435Z,5.10
2023-01-26T22:20:12.184Z,5.00
2023-01-26T22:22:40.432Z,5.00
2023-01-26T22:25:10.736Z,5.10
2023-01-26T22:27:40.891Z,5.10
2023-01-26T22:30:10.638Z,5.10
2023-01-26T22:32:38.677Z,5.10
2023-01-26T22:35:07.258Z,5.20
2023-01-26T22:37:35.335Z,5.30
2023-01-26T22:40:03.415Z,5.30
2023-01-26T22:42:32.972Z,5.40
2023-01-26T22:45:01.078Z,5.40
2023-01-26T22:47:29.256Z,5.50
2023-01-26T22:49:57.432Z,5.50
2023-01-26T22:52:25.589Z,5.50
2023-01-26T22:54:53.940Z,5.60
2023-01-26T22:57:22.079Z,5.70
2023-01-26T22:59:51.476Z,5.70
2023-01-26T23:02:19.714Z,5.70
2023-01-26T23:04:47.805Z,5.70
2023-01-26T23:07:15.912Z,5.70
2023-01-26T23:09:43.953Z,5.70
2023-01-26T23:12:12.023Z,5.80
2023-01-26T23:14:40.103Z,5.80
2023-01-26T23:17:09.518Z,5.70
2023-01-26T23:19:37.584Z,5.70
2023-01-26T23:22:05.858Z,5.70
2023-01-26T23:24:33.978Z,5.70
2023-01-26T23:27:02.082Z,5.70
2023-01-26T23:29:30.194Z,5.70
2023-01-26T23:31:58.320Z,5.70
2023-01-26T23:34:27.768Z,5.70
2023-01-26T23:36:55.800Z,5.70
2023-01-26T23:39:23.862Z,5.70
2023-01-26T23:41:51.929Z,5.70
2023-01-26T23:44:20.035Z,5.70
2023-01-26T23:46:48.122Z,5.80
2023-01-26T23:49:16.709Z,5.80
2023-01-26T23:51:46.093Z,5.80
2023-01-26T23:54:14.146Z,5.80
2023-01-26T23:56:42.220Z,5.80
2023-01-26T23:59:10.840Z,5.80
